createdAt,value
2019-05-21T00:00:49.908Z,968.716
2019-05-21T00:02:50.007Z,968.702
2019-05-21T00:04:50.414Z,968.711
2019-05-21T00:06:50.632Z,968.701
2019-05-21T00:08:50.084Z,968.701
2019-05-21T00:10:50.173Z,968.677
2019-05-21T00:12:50.318Z,968.677
2019-05-21T00:14:50.502Z,968.681
2019-05-21T00:16:50.189Z,968.685
2019-05-21T00:18:50.299Z,968.664
2019-05-21T00:20:50.390Z,968.636
2019-05-21T00:22:50.417Z,968.615
2019-05-21T00:24:50.620Z,968.615
2019-05-21T00:26:50.040Z,968.611
2019-05-21T00:28:50.012Z,968.630
2019-05-21T00:30:50.161Z,968.627
2019-05-21T00:32:50.263Z,968.610
2019-05-21T00:34:49.890Z,968.607
2019-05-21T00:36:50.326Z,968.613
2019-05-21T00:38:52.402Z,968.618
2019-05-21T00:40:50.472Z,968.627
2019-05-21T00:42:49.736Z,968.637
2019-05-21T00:44:49.770Z,968.633
2019-05-21T00:46:50.068Z,968.641
2019-05-21T00:48:50.123Z,968.642
2019-05-21T00:50:50.236Z,968.640
2019-05-21T00:52:50.292Z,968.651
2019-05-21T00:54:50.404Z,968.652
2019-05-21T00:56:50.637Z,968.646
2019-05-21T00:58:49.930Z,968.640
2019-05-21T01:00:49.958Z,968.640
2019-05-21T01:02:49.988Z,968.639
2019-05-21T01:05:01.743Z,968.645
2019-05-21T01:06:49.665Z,968.645
2019-05-21T01:08:49.710Z,968.648
2019-05-21T01:10:49.798Z,968.646
2019-05-21T01:12:49.830Z,968.640
2019-05-21T01:14:49.909Z,968.645
2019-05-21T01:16:50.266Z,968.659
2019-05-21T01:18:50.455Z,968.650
2019-05-21T01:20:50.593Z,968.650
2019-05-21T01:22:49.844Z,968.672
2019-05-21T01:24:50.177Z,968.680
2019-05-21T01:26:50.397Z,968.706
2019-05-21T01:28:50.533Z,968.736
2019-05-21T01:30:49.646Z,968.748
2019-05-21T01:32:49.756Z,968.779
2019-05-21T01:34:50.290Z,968.753
2019-05-21T01:36:51.025Z,968.735
2019-05-21T01:38:49.880Z,968.719
2019-05-21T01:40:49.979Z,968.719
2019-05-21T01:42:50.124Z,968.701
2019-05-21T01:44:50.147Z,968.720
2019-05-21T01:46:50.378Z,968.745
2019-05-21T01:48:50.439Z,968.733
2019-05-21T01:50:50.528Z,968.734
2019-05-21T01:52:50.556Z,968.732
2019-05-21T01:54:49.675Z,968.724
2019-05-21T01:56:49.921Z,968.715
2019-05-21T01:58:49.954Z,968.716
2019-05-21T02:00:50.286Z,968.705
2019-05-21T02:02:50.431Z,968.693
2019-05-21T02:04:49.995Z,968.686
2019-05-21T02:06:50.270Z,968.682
2019-05-21T02:08:49.807Z,968.694
2019-05-21T02:10:49.900Z,968.695
2019-05-21T02:12:50.007Z,968.724
2019-05-21T02:14:50.122Z,968.717
2019-05-21T02:16:50.417Z,968.719
2019-05-21T02:18:50.451Z,968.707
2019-05-21T02:20:50.579Z,968.673
2019-05-21T02:22:49.707Z,968.654
2019-05-21T02:24:49.824Z,968.645
2019-05-21T02:26:50.125Z,968.638
2019-05-21T02:28:50.234Z,968.651
2019-05-21T02:30:50.231Z,968.656
2019-05-21T02:32:50.354Z,968.661
2019-05-21T02:34:49.877Z,968.658
2019-05-21T02:36:50.190Z,968.648
2019-05-21T02:38:50.260Z,968.662
2019-05-21T02:40:50.257Z,968.656
2019-05-21T02:42:50.374Z,968.675
2019-05-21T02:44:54.903Z,968.682
2019-05-21T02:46:50.131Z,968.680
2019-05-21T02:48:50.250Z,968.671
2019-05-21T02:50:50.274Z,968.681
2019-05-21T02:52:50.367Z,968.683
2019-05-21T02:54:50.481Z,968.697
2019-05-21T02:56:49.758Z,968.696
2019-05-21T02:58:49.922Z,968.700
2019-05-21T03:00:49.946Z,968.718
2019-05-21T03:02:49.931Z,968.742
2019-05-21T03:04:50.368Z,968.750
2019-05-21T03:06:49.705Z,968.751
2019-05-21T03:08:49.872Z,968.748
2019-05-21T03:10:49.975Z,968.759
2019-05-21T03:12:50.042Z,968.783
2019-05-21T03:14:50.142Z,968.813
2019-05-21T03:16:50.500Z,968.835
2019-05-21T03:18:50.582Z,968.844
2019-05-21T03:20:50.591Z,968.855
2019-05-21T03:22:49.731Z,968.869
2019-05-21T03:24:49.905Z,968.906
2019-05-21T03:26:50.168Z,968.915
2019-05-21T03:28:50.283Z,968.905
2019-05-21T03:30:50.398Z,968.884
2019-05-21T03:32:49.687Z,968.894
2019-05-21T03:34:50.291Z,968.894
2019-05-21T03:36:50.592Z,968.906
2019-05-21T03:38:49.658Z,968.894
2019-05-21T03:40:49.727Z,968.900
2019-05-21T03:42:49.901Z,968.899
2019-05-21T03:45:01.320Z,968.911
2019-05-21T03:46:50.173Z,968.932
2019-05-21T03:48:50.325Z,968.951
2019-05-21T03:50:50.423Z,968.969
2019-05-21T03:52:50.589Z,968.982
2019-05-21T03:54:49.636Z,968.993
2019-05-21T03:56:50.028Z,968.989
2019-05-21T03:58:50.030Z,968.989
2019-05-21T04:00:50.244Z,969.019
2019-05-21T04:02:50.374Z,969.050
2019-05-21T04:04:49.953Z,969.050
2019-05-21T04:06:52.988Z,969.061
2019-05-21T04:08:50.134Z,969.063
2019-05-21T04:10:50.336Z,969.063
2019-05-21T04:12:50.408Z,969.088
2019-05-21T04:14:50.470Z,969.072
2019-05-21T04:16:49.830Z,969.085
2019-05-21T04:18:49.922Z,969.098
2019-05-21T04:20:50.114Z,969.096
2019-05-21T04:22:50.266Z,969.110
2019-05-21T04:24:50.289Z,969.143
2019-05-21T04:26:50.159Z,969.142
2019-05-21T04:28:50.307Z,969.141
2019-05-21T04:30:50.397Z,969.141
2019-05-21T04:32:50.504Z,969.192
2019-05-21T04:34:49.934Z,969.225
2019-05-21T04:36:50.140Z,969.242
2019-05-21T04:38:50.314Z,969.261
2019-05-21T04:40:50.389Z,969.264
2019-05-21T04:42:50.577Z,969.282
2019-05-21T04:44:49.729Z,969.302
2019-05-21T04:46:49.978Z,969.282
2019-05-21T04:48:50.202Z,969.282
2019-05-21T04:50:50.314Z,969.283
2019-05-21T04:52:50.385Z,969.288
2019-05-21T04:54:50.482Z,969.302
2019-05-21T04:56:49.717Z,969.299
2019-05-21T04:58:49.836Z,969.318
2019-05-21T05:00:49.938Z,969.328
2019-05-21T05:02:49.986Z,969.343
2019-05-21T05:04:50.461Z,969.391
2019-05-21T05:06:50.706Z,969.385
2019-05-21T05:08:49.866Z,969.401
2019-05-21T05:10:49.950Z,969.408
2019-05-21T05:12:50.163Z,969.414
2019-05-21T05:14:50.356Z,969.421
2019-05-21T05:16:49.664Z,969.443
2019-05-21T05:18:49.775Z,969.481
2019-05-21T05:20:49.937Z,969.490
2019-05-21T05:22:50.007Z,969.522
2019-05-21T05:24:50.013Z,969.572
2019-05-21T05:26:50.181Z,969.582
2019-05-21T05:28:50.231Z,969.594
2019-05-21T05:30:50.292Z,969.601
2019-05-21T05:32:50.464Z,969.597
2019-05-21T05:34:49.897Z,969.593
2019-05-21T05:36:49.615Z,969.614
2019-05-21T05:38:49.697Z,969.624
2019-05-21T05:40:49.784Z,969.641
2019-05-21T05:42:49.946Z,969.650
2019-05-21T05:44:50.003Z,969.674
2019-05-21T05:46:50.221Z,969.671
2019-05-21T05:48:50.240Z,969.675
2019-05-21T05:50:50.278Z,969.694
2019-05-21T05:52:50.460Z,969.696
2019-05-21T05:54:50.598Z,969.658
2019-05-21T05:56:50.114Z,969.658
2019-05-21T05:58:50.231Z,969.715
2019-05-21T06:00:50.292Z,969.729
2019-05-21T06:02:50.423Z,969.739
2019-05-21T06:04:49.934Z,969.734
2019-05-21T06:06:50.152Z,969.737
2019-05-21T06:08:50.356Z,969.735
2019-05-21T06:10:50.404Z,969.738
2019-05-21T06:12:50.572Z,969.767
2019-05-21T06:14:49.712Z,969.795
2019-05-21T06:16:50.011Z,969.819
2019-05-21T06:18:50.272Z,969.819
2019-05-21T06:20:50.462Z,969.851
2019-05-21T06:22:50.604Z,969.876
2019-05-21T06:24:49.627Z,969.895
2019-05-21T06:26:49.840Z,969.903
2019-05-21T06:28:49.911Z,969.917
2019-05-21T06:30:50.124Z,969.944
2019-05-21T06:32:50.248Z,969.955
2019-05-21T06:34:49.589Z,969.949
2019-05-21T06:36:49.808Z,969.958
2019-05-21T06:38:49.971Z,969.964
2019-05-21T06:40:50.212Z,969.971
2019-05-21T06:42:50.354Z,969.991
2019-05-21T06:44:50.511Z,970.027
2019-05-21T06:46:49.866Z,970.037
2019-05-21T06:48:49.962Z,970.064
2019-05-21T06:50:50.000Z,970.071
2019-05-21T06:52:50.160Z,970.090
2019-05-21T06:54:50.287Z,970.090
2019-05-21T06:56:50.499Z,970.101
2019-05-21T06:58:50.539Z,970.107
2019-05-21T07:00:49.864Z,970.125
2019-05-21T07:02:49.935Z,970.138
2019-05-21T07:04:50.358Z,970.153
2019-05-21T07:06:50.546Z,970.188
2019-05-21T07:08:49.626Z,970.194
2019-05-21T07:10:49.812Z,970.225
2019-05-21T07:12:50.112Z,970.225
2019-05-21T07:14:50.468Z,970.254
2019-05-21T07:16:49.775Z,970.263
2019-05-21T07:18:49.897Z,970.303
2019-05-21T07:20:50.055Z,970.321
2019-05-21T07:22:50.565Z,970.335
2019-05-21T07:24:50.111Z,970.375
2019-05-21T07:26:50.336Z,970.402
2019-05-21T07:28:54.306Z,970.430
2019-05-21T07:30:50.399Z,970.439
2019-05-21T07:32:50.796Z,970.467
2019-05-21T07:34:50.325Z,970.455
2019-05-21T07:36:50.555Z,970.465
2019-05-21T07:38:54.601Z,970.466
2019-05-21T07:40:49.630Z,970.495
2019-05-21T07:42:49.815Z,970.515
2019-05-21T07:44:49.800Z,970.523
2019-05-21T07:46:50.219Z,970.538
2019-05-21T07:48:50.354Z,970.545
2019-05-21T07:50:50.484Z,970.553
2019-05-21T07:52:50.566Z,970.542
2019-05-21T07:54:49.646Z,970.543
2019-05-21T07:56:49.995Z,970.542
2019-05-21T07:58:50.124Z,970.572
2019-05-21T08:00:50.225Z,970.588
2019-05-21T08:02:50.318Z,970.604
2019-05-21T08:04:49.851Z,970.611
2019-05-21T08:06:50.035Z,970.620
2019-05-21T08:08:50.095Z,970.616
2019-05-21T08:10:50.137Z,970.613
2019-05-21T08:12:50.393Z,970.628
2019-05-21T08:14:50.484Z,970.665
2019-05-21T08:16:49.859Z,970.696
2019-05-21T08:18:49.978Z,970.728
2019-05-21T08:20:50.076Z,970.750
2019-05-21T08:22:50.107Z,970.771
2019-05-21T08:24:50.208Z,970.794
2019-05-21T08:26:50.522Z,970.802
2019-05-21T08:28:50.576Z,970.825
2019-05-21T08:30:50.611Z,970.863
2019-05-21T08:32:49.757Z,970.858
2019-05-21T08:34:50.194Z,970.842
2019-05-21T08:36:50.413Z,970.849
2019-05-21T08:38:50.523Z,970.867
2019-05-21T08:40:50.531Z,970.870
2019-05-21T08:42:50.531Z,970.889
2019-05-21T08:44:50.610Z,970.916
2019-05-21T08:46:49.967Z,970.957
2019-05-21T08:48:49.991Z,970.981
2019-05-21T08:50:50.118Z,971.026
2019-05-21T08:52:50.258Z,971.071
2019-05-21T08:54:50.335Z,971.104
2019-05-21T08:56:50.624Z,971.127
2019-05-21T08:58:49.679Z,971.144
2019-05-21T09:00:49.831Z,971.171
2019-05-21T09:02:49.863Z,971.176
2019-05-21T09:04:50.486Z,971.197
2019-05-21T09:06:49.677Z,971.203
2019-05-21T09:08:49.807Z,971.222
2019-05-21T09:10:49.922Z,971.238
2019-05-21T09:12:50.033Z,971.238
2019-05-21T09:14:50.123Z,971.250
2019-05-21T09:16:50.307Z,971.275
2019-05-21T09:18:50.447Z,971.285
2019-05-21T09:20:50.496Z,971.306
2019-05-21T09:22:50.589Z,971.332
2019-05-21T09:24:49.660Z,971.355
2019-05-21T09:26:49.921Z,971.384
2019-05-21T09:28:50.122Z,971.391
2019-05-21T09:30:50.195Z,971.396
2019-05-21T09:32:50.235Z,971.403
2019-05-21T09:34:49.874Z,971.393
2019-05-21T09:36:50.157Z,971.428
2019-05-21T09:38:50.329Z,971.440
2019-05-21T09:40:50.550Z,971.472
2019-05-21T09:42:50.572Z,971.500
2019-05-21T09:44:50.555Z,971.522
2019-05-21T09:46:49.786Z,971.517
2019-05-21T09:48:49.879Z,971.512
2019-05-21T09:50:49.974Z,971.511
2019-05-21T09:52:50.104Z,971.513
2019-05-21T09:54:50.276Z,971.515
2019-05-21T09:56:50.559Z,971.535
2019-05-21T09:58:49.806Z,971.547
2019-05-21T10:00:49.841Z,971.580
2019-05-21T10:02:50.596Z,971.607
2019-05-21T10:04:50.003Z,971.635
2019-05-21T10:06:50.253Z,971.663
2019-05-21T10:08:50.311Z,971.677
2019-05-21T10:10:50.401Z,971.676
2019-05-21T10:12:49.674Z,971.673
2019-05-21T10:14:49.702Z,971.711
2019-05-21T10:16:50.004Z,971.728
2019-05-21T10:18:50.186Z,971.771
2019-05-21T10:20:50.276Z,971.790
2019-05-21T10:22:50.327Z,971.826
2019-05-21T10:24:50.466Z,971.856
2019-05-21T10:26:49.624Z,971.847
2019-05-21T10:28:49.702Z,971.830
2019-05-21T10:30:49.843Z,971.806
2019-05-21T10:32:49.883Z,971.795
2019-05-21T10:34:50.338Z,971.808
2019-05-21T10:36:50.505Z,971.844
2019-05-21T10:38:50.591Z,971.870
2019-05-21T10:40:50.050Z,971.896
2019-05-21T10:42:50.358Z,971.918
2019-05-21T10:44:50.564Z,971.928
2019-05-21T10:46:49.818Z,971.979
2019-05-21T10:48:49.902Z,971.987
2019-05-21T10:50:50.004Z,972.010
2019-05-21T10:52:50.219Z,972.002
2019-05-21T10:54:50.279Z,971.995
2019-05-21T10:56:50.493Z,971.993
2019-05-21T10:58:50.572Z,971.993
2019-05-21T11:00:50.599Z,972.007
2019-05-21T11:02:49.718Z,972.007
2019-05-21T11:04:50.190Z,972.013
2019-05-21T11:06:50.392Z,972.029
2019-05-21T11:08:50.389Z,972.038
2019-05-21T11:10:50.562Z,972.066
2019-05-21T11:12:49.847Z,972.092
2019-05-21T11:14:49.885Z,972.125
2019-05-21T11:16:50.225Z,972.140
2019-05-21T11:18:50.448Z,972.168
2019-05-21T11:20:51.220Z,972.175
2019-05-21T11:22:49.935Z,972.169
2019-05-21T11:24:49.975Z,972.169
2019-05-21T11:26:50.231Z,972.191
2019-05-21T11:28:50.301Z,972.192
2019-05-21T11:30:50.800Z,972.187
2019-05-21T11:32:49.955Z,972.190
2019-05-21T11:34:50.969Z,972.189
2019-05-21T11:36:50.228Z,972.195
2019-05-21T11:38:50.332Z,972.211
2019-05-21T11:40:51.638Z,972.228
2019-05-21T11:42:53.544Z,972.272
2019-05-21T11:44:49.652Z,972.279
2019-05-21T11:46:50.067Z,972.332
2019-05-21T11:48:50.155Z,972.362
2019-05-21T11:50:50.279Z,972.389
2019-05-21T11:52:50.298Z,972.400
2019-05-21T11:54:50.307Z,972.387
2019-05-21T11:56:49.706Z,972.393
2019-05-21T11:58:49.703Z,972.409
2019-05-21T12:00:49.821Z,972.419
2019-05-21T12:02:49.862Z,972.417
2019-05-21T12:04:50.462Z,972.432
2019-05-21T12:06:49.744Z,972.441
2019-05-21T12:08:57.573Z,972.471
2019-05-21T12:10:49.640Z,972.483
2019-05-21T12:12:49.629Z,972.519
2019-05-21T12:14:49.843Z,972.526
2019-05-21T12:16:50.094Z,972.535
2019-05-21T12:18:50.287Z,972.558
2019-05-21T12:20:50.435Z,972.552
2019-05-21T12:22:50.608Z,972.580
2019-05-21T12:24:49.640Z,972.580
2019-05-21T12:26:49.918Z,972.601
2019-05-21T12:28:49.985Z,972.647
2019-05-21T12:30:50.043Z,972.661
2019-05-21T12:32:50.149Z,972.701
2019-05-21T12:34:50.547Z,972.731
2019-05-21T12:36:49.683Z,972.757
2019-05-21T12:38:49.753Z,972.807
2019-05-21T12:40:49.807Z,972.831
2019-05-21T12:42:49.887Z,972.881
2019-05-21T12:44:49.986Z,972.881
2019-05-21T12:46:50.249Z,972.939
2019-05-21T12:48:50.364Z,972.968
2019-05-21T12:50:50.442Z,973.013
2019-05-21T12:52:50.479Z,973.026
2019-05-21T12:54:49.666Z,973.046
2019-05-21T12:56:49.895Z,973.081
2019-05-21T12:58:49.888Z,973.106
2019-05-21T13:00:49.926Z,973.124
2019-05-21T13:02:50.040Z,973.155
2019-05-21T13:04:50.516Z,973.182
2019-05-21T13:06:49.801Z,973.165
2019-05-21T13:08:49.943Z,973.176
2019-05-21T13:10:50.283Z,973.211
2019-05-21T13:12:50.374Z,973.237
2019-05-21T13:14:50.449Z,973.274
2019-05-21T13:16:49.715Z,973.256
2019-05-21T13:18:49.862Z,973.269
2019-05-21T13:20:49.940Z,973.304
2019-05-21T13:22:50.140Z,973.326
2019-05-21T13:24:50.234Z,973.373
2019-05-21T13:26:50.452Z,973.400
2019-05-21T13:28:50.468Z,973.448
2019-05-21T13:30:49.611Z,973.478
2019-05-21T13:32:49.697Z,973.549
2019-05-21T13:34:50.352Z,973.549
2019-05-21T13:36:50.520Z,973.620
2019-05-21T13:38:50.591Z,973.632
2019-05-21T13:40:49.781Z,973.659
2019-05-21T13:42:50.032Z,973.740
2019-05-21T13:44:50.129Z,973.746
2019-05-21T13:46:50.317Z,973.768
2019-05-21T13:48:50.432Z,973.795
2019-05-21T13:50:50.471Z,973.802
2019-05-21T13:52:50.586Z,973.851
2019-05-21T13:54:50.385Z,973.844
2019-05-21T13:56:50.566Z,973.866
2019-05-21T13:58:49.740Z,973.901
2019-05-21T14:00:49.924Z,973.910
2019-05-21T14:02:49.951Z,973.945
2019-05-21T14:04:50.401Z,973.984
2019-05-21T14:06:50.587Z,974.007
2019-05-21T14:08:49.751Z,974.035
2019-05-21T14:10:49.837Z,974.058
2019-05-21T14:12:49.952Z,974.071
2019-05-21T14:14:51.139Z,974.098
2019-05-21T14:16:49.659Z,974.099
2019-05-21T14:18:50.073Z,974.145
2019-05-21T14:20:50.275Z,974.207
2019-05-21T14:22:50.443Z,974.236
2019-05-21T14:24:50.603Z,974.268
2019-05-21T14:26:49.909Z,974.298
2019-05-21T14:28:50.020Z,974.317
2019-05-21T14:30:50.099Z,974.325
2019-05-21T14:32:50.311Z,974.345
2019-05-21T14:35:02.560Z,974.376
2019-05-21T14:36:50.195Z,974.391
2019-05-21T14:38:50.277Z,974.402
2019-05-21T14:40:50.301Z,974.416
2019-05-21T14:43:00.972Z,974.436
2019-05-21T14:44:50.192Z,974.491
2019-05-21T14:46:50.379Z,974.505
2019-05-21T14:48:50.596Z,974.535
2019-05-21T14:50:50.196Z,974.547
2019-05-21T14:52:52.654Z,974.555
2019-05-21T14:54:49.760Z,974.588
2019-05-21T14:56:50.031Z,974.607
2019-05-21T14:58:50.565Z,974.641
2019-05-21T15:00:49.809Z,974.666
2019-05-21T15:02:49.918Z,974.719
2019-05-21T15:04:50.794Z,974.719
2019-05-21T15:06:50.249Z,974.769
2019-05-21T15:08:50.303Z,974.804
2019-05-21T15:10:50.451Z,974.805
2019-05-21T15:12:50.580Z,974.835
2019-05-21T15:14:49.748Z,974.850
2019-05-21T15:16:49.969Z,974.852
2019-05-21T15:18:49.999Z,974.861
2019-05-21T15:20:50.247Z,974.869
2019-05-21T15:22:50.349Z,974.911
2019-05-21T15:24:50.391Z,974.928
2019-05-21T15:26:50.493Z,974.981
2019-05-21T15:28:50.583Z,975.012
2019-05-21T15:30:49.658Z,975.088
2019-05-21T15:32:49.720Z,975.090
2019-05-21T15:34:50.351Z,975.106
2019-05-21T15:36:50.571Z,975.129
2019-05-21T15:38:51.603Z,975.135
2019-05-21T15:41:12.123Z,975.163
2019-05-21T15:42:54.112Z,975.205
2019-05-21T15:44:50.270Z,975.195
2019-05-21T15:46:52.336Z,975.200
2019-05-21T15:48:50.461Z,975.192
2019-05-21T15:50:49.878Z,975.206
2019-05-21T15:52:49.929Z,975.238
2019-05-21T15:54:49.868Z,975.256
2019-05-21T15:56:49.962Z,975.281
2019-05-21T15:58:49.950Z,975.345
2019-05-21T16:00:49.879Z,975.359
2019-05-21T16:02:49.970Z,975.391
2019-05-21T16:04:50.280Z,975.419
2019-05-21T16:06:50.376Z,975.435
2019-05-21T16:08:50.833Z,975.477
2019-05-21T16:10:50.069Z,975.511
2019-05-21T16:12:54.801Z,975.556
2019-05-21T16:14:49.784Z,975.596
2019-05-21T16:16:49.885Z,975.613
2019-05-21T16:18:50.016Z,975.627
2019-05-21T16:20:49.977Z,975.648
2019-05-21T16:22:49.936Z,975.683
2019-05-21T16:24:49.949Z,975.703
2019-05-21T16:26:50.194Z,975.753
2019-05-21T16:28:50.194Z,975.760
2019-05-21T16:30:50.233Z,975.769
2019-05-21T16:32:50.297Z,975.772
2019-05-21T16:34:49.925Z,975.780
2019-05-21T16:36:50.280Z,975.799
2019-05-21T16:38:50.280Z,975.826
2019-05-21T16:40:50.304Z,975.832
2019-05-21T16:42:50.335Z,975.845
2019-05-21T16:44:50.345Z,975.861
2019-05-21T16:46:50.421Z,975.860
2019-05-21T16:48:50.334Z,975.870
2019-05-21T16:50:50.438Z,975.883
2019-05-21T16:52:50.351Z,975.913
2019-05-21T16:54:50.283Z,975.915
2019-05-21T16:56:50.331Z,975.955
2019-05-21T16:58:50.361Z,975.984
2019-05-21T17:00:50.507Z,975.991
2019-05-21T17:02:50.049Z,976.009
2019-05-21T17:04:50.370Z,976.034
2019-05-21T17:06:49.691Z,976.041
2019-05-21T17:08:49.671Z,976.066
2019-05-21T17:10:50.608Z,976.072
2019-05-21T17:12:49.650Z,976.106
2019-05-21T17:14:50.584Z,976.133
2019-05-21T17:16:49.784Z,976.155
2019-05-21T17:18:49.890Z,976.181
2019-05-21T17:20:49.890Z,976.209
2019-05-21T17:22:49.849Z,976.241
2019-05-21T17:24:49.856Z,976.270
2019-05-21T17:26:50.020Z,976.279
2019-05-21T17:28:50.123Z,976.295
2019-05-21T17:30:50.071Z,976.336
2019-05-21T17:32:50.070Z,976.360
2019-05-21T17:34:50.354Z,976.392
2019-05-21T17:36:50.405Z,976.390
2019-05-21T17:38:50.361Z,976.425
2019-05-21T17:40:50.524Z,976.426
2019-05-21T17:42:49.632Z,976.473
2019-05-21T17:44:49.740Z,976.489
2019-05-21T17:46:50.166Z,976.531
2019-05-21T17:48:50.237Z,976.545
2019-05-21T17:50:50.333Z,976.580
2019-05-21T17:52:50.324Z,976.606
2019-05-21T17:54:57.411Z,976.618
2019-05-21T17:56:50.466Z,976.613
2019-05-21T17:58:50.438Z,976.633
2019-05-21T18:00:50.482Z,976.671
2019-05-21T18:02:50.379Z,976.692
2019-05-21T18:04:49.786Z,976.692
2019-05-21T18:06:49.930Z,976.692
2019-05-21T18:08:49.983Z,976.729
2019-05-21T18:10:49.997Z,976.754
2019-05-21T18:12:50.024Z,976.787
2019-05-21T18:14:50.011Z,976.846
2019-05-21T18:16:50.191Z,976.869
2019-05-21T18:18:50.190Z,976.915
2019-05-21T18:20:50.183Z,976.937
2019-05-21T18:22:50.287Z,976.984
2019-05-21T18:24:50.452Z,977.017
2019-05-21T18:26:50.580Z,977.053
2019-05-21T18:28:50.545Z,977.079
2019-05-21T18:30:50.592Z,977.108
2019-05-21T18:32:50.542Z,977.121
2019-05-21T18:34:49.712Z,977.165
2019-05-21T18:36:49.927Z,977.206
2019-05-21T18:38:49.959Z,977.238
2019-05-21T18:40:49.940Z,977.259
2019-05-21T18:42:49.909Z,977.310
2019-05-21T18:44:50.020Z,977.344
2019-05-21T18:46:50.211Z,977.364
2019-05-21T18:48:50.156Z,977.396
2019-05-21T18:50:50.140Z,977.405
2019-05-21T18:52:50.168Z,977.427
2019-05-21T18:54:50.202Z,977.470
2019-05-21T18:56:50.404Z,977.487
2019-05-21T18:58:50.636Z,977.563
2019-05-21T19:00:49.687Z,977.596
2019-05-21T19:02:49.658Z,977.618
2019-05-21T19:04:50.127Z,977.613
2019-05-21T19:06:50.559Z,977.627
2019-05-21T19:08:50.736Z,977.693
2019-05-21T19:10:49.708Z,977.722
2019-05-21T19:12:49.738Z,977.742
2019-05-21T19:14:49.760Z,977.778
2019-05-21T19:16:49.876Z,977.814
2019-05-21T19:18:49.816Z,977.862
2019-05-21T19:20:50.381Z,977.891
2019-05-21T19:22:50.464Z,977.925
2019-05-21T19:24:50.457Z,977.966
2019-05-21T19:26:50.119Z,977.998
2019-05-21T19:28:50.201Z,978.023
2019-05-21T19:30:50.314Z,978.039
2019-05-21T19:32:50.514Z,978.062
2019-05-21T19:34:49.812Z,978.064
2019-05-21T19:36:49.963Z,978.131
2019-05-21T19:38:50.031Z,978.142
2019-05-21T19:40:50.053Z,978.180
2019-05-21T19:42:55.893Z,978.200
2019-05-21T19:44:49.938Z,978.224
2019-05-21T19:46:50.070Z,978.217
2019-05-21T19:48:50.140Z,978.256
2019-05-21T19:50:50.112Z,978.256
2019-05-21T19:52:50.110Z,978.291
2019-05-21T19:54:50.086Z,978.298
2019-05-21T19:56:50.211Z,978.352
2019-05-21T19:58:50.161Z,978.401
2019-05-21T20:00:50.122Z,978.437
2019-05-21T20:02:50.165Z,978.449
2019-05-21T20:04:50.391Z,978.486
2019-05-21T20:06:50.425Z,978.531
2019-05-21T20:08:50.506Z,978.551
2019-05-21T20:10:50.508Z,978.549
2019-05-21T20:12:50.684Z,978.586
2019-05-21T20:14:49.719Z,978.597
2019-05-21T20:16:50.987Z,978.607
2019-05-21T20:18:50.255Z,978.625
2019-05-21T20:20:50.289Z,978.654
2019-05-21T20:22:50.221Z,978.669
2019-05-21T20:24:50.218Z,978.674
2019-05-21T20:26:50.285Z,978.684
2019-05-21T20:28:50.370Z,978.699
2019-05-21T20:30:50.304Z,978.712
2019-05-21T20:32:50.297Z,978.741
2019-05-21T20:34:51.470Z,978.765
2019-05-21T20:36:49.686Z,978.786
2019-05-21T20:38:49.695Z,978.796
2019-05-21T20:40:49.615Z,978.818
2019-05-21T20:42:49.727Z,978.818
2019-05-21T20:44:49.956Z,978.841
2019-05-21T20:46:50.045Z,978.841
2019-05-21T20:48:50.129Z,978.878
2019-05-21T20:50:50.143Z,978.880
2019-05-21T20:52:50.169Z,978.882
2019-05-21T20:54:50.139Z,978.876
2019-05-21T20:56:50.320Z,978.898
2019-05-21T20:58:50.287Z,978.913
2019-05-21T21:00:50.443Z,978.917
2019-05-21T21:02:50.448Z,978.941
2019-05-21T21:04:49.686Z,978.970
2019-05-21T21:06:50.003Z,978.982
2019-05-21T21:08:50.068Z,978.994
2019-05-21T21:10:50.113Z,978.986
2019-05-21T21:12:50.134Z,978.998
2019-05-21T21:14:50.154Z,979.003
2019-05-21T21:16:50.327Z,979.009
2019-05-21T21:18:50.301Z,979.036
2019-05-21T21:20:50.316Z,979.046
2019-05-21T21:22:50.352Z,979.084
2019-05-21T21:24:50.296Z,979.076
2019-05-21T21:26:50.503Z,979.101
2019-05-21T21:28:50.542Z,979.089
2019-05-21T21:30:50.562Z,979.107
2019-05-21T21:32:49.622Z,979.120
2019-05-21T21:34:49.982Z,979.122
2019-05-21T21:36:53.656Z,979.141
2019-05-21T21:38:49.771Z,979.151
2019-05-21T21:40:49.679Z,979.164
2019-05-21T21:42:49.673Z,979.168
2019-05-21T21:44:49.740Z,979.186
2019-05-21T21:46:49.812Z,979.205
2019-05-21T21:48:49.786Z,979.206
2019-05-21T21:50:49.771Z,979.215
2019-05-21T21:52:49.761Z,979.215
2019-05-21T21:54:49.910Z,979.195
2019-05-21T21:56:50.052Z,979.215
2019-05-21T21:58:50.087Z,979.215
2019-05-21T22:00:50.112Z,979.241
2019-05-21T22:02:49.924Z,979.257
2019-05-21T22:04:50.364Z,979.262
2019-05-21T22:06:50.600Z,979.267
2019-05-21T22:08:49.919Z,979.267
2019-05-21T22:10:49.930Z,979.257
2019-05-21T22:12:49.941Z,979.248
2019-05-21T22:14:52.765Z,979.249
2019-05-21T22:16:52.124Z,979.249
2019-05-21T22:18:50.114Z,979.265
2019-05-21T22:20:50.201Z,979.275
2019-05-21T22:22:50.194Z,979.293
2019-05-21T22:24:50.420Z,979.312
2019-05-21T22:26:49.846Z,979.335
2019-05-21T22:28:50.460Z,979.348
2019-05-21T22:30:50.451Z,979.378
2019-05-21T22:32:50.489Z,979.386
2019-05-21T22:34:49.945Z,979.410
2019-05-21T22:36:50.033Z,979.426
2019-05-21T22:38:49.993Z,979.431
2019-05-21T22:40:50.028Z,979.466
2019-05-21T22:42:50.115Z,979.475
2019-05-21T22:45:08.886Z,979.480
2019-05-21T22:46:50.000Z,979.499
2019-05-21T22:48:49.942Z,979.512
2019-05-21T22:50:49.947Z,979.532
2019-05-21T22:52:49.939Z,979.532
2019-05-21T22:54:49.910Z,979.544
2019-05-21T22:56:50.034Z,979.544
2019-05-21T22:58:50.035Z,979.583
2019-05-21T23:00:49.959Z,979.597
2019-05-21T23:02:50.028Z,979.622
2019-05-21T23:04:50.380Z,979.618
2019-05-21T23:06:50.490Z,979.618
2019-05-21T23:08:50.440Z,979.621
2019-05-21T23:10:50.516Z,979.618
2019-05-21T23:12:50.568Z,979.651
2019-05-21T23:14:49.727Z,979.634
2019-05-21T23:16:49.862Z,979.620
2019-05-21T23:18:49.903Z,979.615
2019-05-21T23:20:49.881Z,979.612
2019-05-21T23:22:49.881Z,979.638
2019-05-21T23:24:49.851Z,979.645
2019-05-21T23:26:49.967Z,979.636
2019-05-21T23:28:49.957Z,979.646
2019-05-21T23:30:49.985Z,979.655
2019-05-21T23:32:50.055Z,979.655
2019-05-21T23:34:50.391Z,979.654
2019-05-21T23:36:49.610Z,979.654
2019-05-21T23:38:50.546Z,979.669
2019-05-21T23:40:50.585Z,979.694
2019-05-21T23:42:49.589Z,979.699
2019-05-21T23:44:50.476Z,979.719
2019-05-21T23:46:50.564Z,979.720
2019-05-21T23:48:49.807Z,979.733
2019-05-21T23:50:49.858Z,979.727
2019-05-21T23:52:49.811Z,979.738
2019-05-21T23:54:49.791Z,979.748
2019-05-21T23:56:50.074Z,979.755
2019-05-21T23:58:50.024Z,979.756
